Anderson Regional Airport
KAND : now visible

Airfield :











YOU CAN JOIN US ON...

 
LOGIN :

Register | Disclaimer

   EN    FR    IT 

 









Legend :    VFR   Marginal VFR   IFR   Intensive IFR   Very Intensive IFR
Visi :
Ceiling :
>= 8 km
>= 3000ft
5 to 8 km
1000 to 3000 ft
1500m to 5 km
500 to 1000 ft
800 to 1500m
200 to 500 ft
< 800m
< 200 ft
Symbols :   Thunderstorms  Fog  Heavy snow  Heavy precipitations  Wind > 20 kt







- Airport Elevation : 782 ft


KAND - Anderson Regional

CURRENT METAR :
  • 160556Z AUTO 00000KT 10SM CLR 22/19 A3010 RMK AO2 SLP180 T02220189 10278 20217 50000

EXPIRED METARs :
  • 160456Z AUTO 00000KT 10SM CLR 23/19 A3010 RMK AO2 SLP183 T02280194 403220206
  • 160356Z AUTO 00000KT 10SM CLR 24/19 A3011 RMK AO2 SLP184 T02390194

TAF KAND
Valid from the 16 at 06:00 until the 17 at 06:00 UTC


160536Z 1606/1706 05003KT P6SM FEW250
FM161600 04005KT P6SM FEW060
FM162200 VRB03KT P6SM SKC
No reported NOTAMs for that airfield.



MET'MAP, your aeronautical weather chart ! - Copyright ORBIFLY December 2007 - Disclaimer

ORBIFLY MET'MAP TEAM :

Programming & Development : Alexandra Zaïnal
Concept & Development : Baudouin d'Aumeries
Co-Development & Prog : Marc-Olivier Méhu
Technical & hardware support : Manuel Goepfert

Contact : metmap@orbifly.com




SOURCES & CREDITS :

   NOAA       Earth
Advisory